EZTT1L1 EGGW-EGNM
Flight info
| Callsign | EZTT1L1 |
|---|---|
| Flight time | 0h 28m |
| Altitude | 18000 |
| Route | OLNEY T420 TNT N57 DENBY DCT LBA |
| Aircraft | A321/M-SDE3FGHIRWY/LB1 |
Departure
| Time | 2026-04-28 19:57 |
|---|---|
| Airport | London Luton Airport (EGGW) |
Arrival
| Time | 2026-04-28 20:26 |
|---|---|
| Airport | Leeds Bradford Airport (EGNM) |
| Time | Latitude | Longitude | Altitude | Speed | Heading |
|---|---|---|---|---|---|
| 2026-04-28 19:25 | 51.88021 | -0.37831 | 524 ft | 0 kts | 128° |
| 2026-04-28 19:39 | 51.88021 | -0.37832 | 523 ft | 0 kts | 128° |
| 2026-04-28 19:45 | 51.88022 | -0.37832 | 523 ft | 0 kts | 128° |
| 2026-04-28 19:47 | 51.88029 | -0.37847 | 523 ft | 4 kts | 128° |
| 2026-04-28 19:48 | 51.88042 | -0.37875 | 523 ft | 4 kts | 141° |
| 2026-04-28 19:48 | 51.88061 | -0.37880 | 523 ft | 4 kts | 214° |
| 2026-04-28 19:48 | 51.88080 | -0.37857 | 523 ft | 2 kts | 218° |
| 2026-04-28 19:48 | 51.88081 | -0.37855 | 523 ft | 2 kts | 218° |
| 2026-04-28 19:50 | 51.88077 | -0.37860 | 523 ft | 1 kts | 218° |
| 2026-04-28 19:51 | 51.88059 | -0.37882 | 523 ft | 8 kts | 218° |
| 2026-04-28 19:51 | 51.88009 | -0.37945 | 523 ft | 9 kts | 218° |
| 2026-04-28 19:51 | 51.87952 | -0.38002 | 523 ft | 11 kts | 200° |
| 2026-04-28 19:51 | 51.87878 | -0.38006 | 523 ft | 10 kts | 167° |
| 2026-04-28 19:52 | 51.87822 | -0.37955 | 523 ft | 9 kts | 139° |
| 2026-04-28 19:52 | 51.87789 | -0.37875 | 523 ft | 9 kts | 116° |
| 2026-04-28 19:52 | 51.87761 | -0.37779 | 523 ft | 10 kts | 115° |
| 2026-04-28 19:52 | 51.87730 | -0.37674 | 521 ft | 13 kts | 115° |
| 2026-04-28 19:53 | 51.87689 | -0.37538 | 521 ft | 12 kts | 122° |
| 2026-04-28 19:53 | 51.87630 | -0.37468 | 523 ft | 9 kts | 160° |
| 2026-04-28 19:53 | 51.87571 | -0.37458 | 522 ft | 10 kts | 184° |
| 2026-04-28 19:53 | 51.87505 | -0.37528 | 522 ft | 11 kts | 247° |
| 2026-04-28 19:54 | 51.87486 | -0.37637 | 523 ft | 9 kts | 254° |
| 2026-04-28 19:54 | 51.87471 | -0.37727 | 523 ft | 8 kts | 254° |
| 2026-04-28 19:54 | 51.87455 | -0.37816 | 522 ft | 8 kts | 255° |
| 2026-04-28 19:54 | 51.87442 | -0.37895 | 523 ft | 6 kts | 255° |
| 2026-04-28 19:55 | 51.87431 | -0.37956 | 524 ft | 7 kts | 253° |
| 2026-04-28 19:55 | 51.87400 | -0.38035 | 524 ft | 8 kts | 224° |
| 2026-04-28 19:55 | 51.87346 | -0.38079 | 522 ft | 9 kts | 197° |
| 2026-04-28 19:55 | 51.87287 | -0.38105 | 523 ft | 8 kts | 180° |
| 2026-04-28 19:56 | 51.87256 | -0.38067 | 524 ft | 4 kts | 104° |
| 2026-04-28 19:56 | 51.87260 | -0.38028 | 524 ft | 3 kts | 77° |
| 2026-04-28 19:56 | 51.87274 | -0.37941 | 524 ft | 24 kts | 75° |
| 2026-04-28 19:56 | 51.87390 | -0.37270 | 521 ft | 96 kts | 74° |
| 2026-04-28 19:57 | 51.87621 | -0.35930 | 533 ft | 147 kts | 68° |
| 2026-04-28 19:57 | 51.87900 | -0.34243 | 907 ft | 164 kts | 71° |
| 2026-04-28 19:57 | 51.88211 | -0.32443 | 1560 ft | 164 kts | 71° |
| 2026-04-28 19:57 | 51.88522 | -0.30721 | 2395 ft | 161 kts | 71° |
| 2026-04-28 19:58 | 51.88851 | -0.28916 | 2811 ft | 176 kts | 73° |
| 2026-04-28 19:58 | 51.89445 | -0.27055 | 2991 ft | 204 kts | 45° |
| 2026-04-28 19:58 | 51.90865 | -0.26193 | 3413 ft | 241 kts | 5° |
| 2026-04-28 19:58 | 51.92527 | -0.27106 | 4111 ft | 270 kts | 328° |
| 2026-04-28 19:59 | 51.93683 | -0.29596 | 4900 ft | 289 kts | 292° |
| 2026-04-28 19:59 | 51.93911 | -0.32863 | 5664 ft | 298 kts | 266° |
| 2026-04-28 19:59 | 51.93677 | -0.36233 | 6159 ft | 301 kts | 262° |
| 2026-04-28 19:59 | 51.93462 | -0.39608 | 7030 ft | 302 kts | 275° |
| 2026-04-28 20:00 | 51.94081 | -0.42824 | 7779 ft | 301 kts | 303° |
| 2026-04-28 20:00 | 51.95328 | -0.45528 | 8567 ft | 300 kts | 316° |
| 2026-04-28 20:00 | 51.96824 | -0.47895 | 9352 ft | 301 kts | 322° |
| 2026-04-28 20:00 | 51.98403 | -0.50154 | 10133 ft | 305 kts | 322° |
| 2026-04-28 20:01 | 52.00020 | -0.52466 | 10612 ft | 320 kts | 322° |
| 2026-04-28 20:01 | 52.01721 | -0.54997 | 10792 ft | 343 kts | 320° |
| 2026-04-28 20:01 | 52.03493 | -0.57772 | 11018 ft | 363 kts | 318° |
| 2026-04-28 20:01 | 52.05300 | -0.60725 | 11557 ft | 371 kts | 317° |
| 2026-04-28 20:02 | 52.07109 | -0.63760 | 12237 ft | 376 kts | 317° |
| 2026-04-28 20:02 | 52.08926 | -0.66847 | 12932 ft | 380 kts | 317° |
| 2026-04-28 20:02 | 52.10740 | -0.69929 | 13609 ft | 384 kts | 317° |
| 2026-04-28 20:02 | 52.12656 | -0.72967 | 14253 ft | 386 kts | 324° |
| 2026-04-28 20:03 | 52.14848 | -0.75469 | 14842 ft | 385 kts | 333° |
| 2026-04-28 20:03 | 52.17153 | -0.77738 | 15450 ft | 389 kts | 334° |
| 2026-04-28 20:03 | 52.19474 | -0.80021 | 16074 ft | 392 kts | 334° |
| 2026-04-28 20:03 | 52.21817 | -0.82331 | 16673 ft | 395 kts | 334° |
| 2026-04-28 20:04 | 52.24179 | -0.84673 | 17260 ft | 399 kts | 334° |
| 2026-04-28 20:04 | 52.26565 | -0.87044 | 17848 ft | 402 kts | 334° |
| 2026-04-28 20:04 | 52.28965 | -0.89431 | 18236 ft | 405 kts | 334° |
| 2026-04-28 20:04 | 52.31369 | -0.91823 | 18336 ft | 408 kts | 334° |
| 2026-04-28 20:05 | 52.33819 | -0.94255 | 18357 ft | 413 kts | 334° |
| 2026-04-28 20:05 | 52.36272 | -0.96699 | 18358 ft | 413 kts | 334° |
| 2026-04-28 20:05 | 52.38729 | -0.99157 | 18367 ft | 414 kts | 334° |
| 2026-04-28 20:05 | 52.41187 | -1.01616 | 18363 ft | 414 kts | 334° |
| 2026-04-28 20:06 | 52.43643 | -1.04075 | 18342 ft | 414 kts | 334° |
| 2026-04-28 20:06 | 52.46102 | -1.06539 | 18337 ft | 414 kts | 334° |
| 2026-04-28 20:06 | 52.48527 | -1.08977 | 18335 ft | 414 kts | 334° |
| 2026-04-28 20:06 | 52.50982 | -1.11446 | 18330 ft | 414 kts | 334° |
| 2026-04-28 20:07 | 52.53435 | -1.13910 | 18311 ft | 413 kts | 334° |
| 2026-04-28 20:07 | 52.55089 | -1.15574 | 18317 ft | 413 kts | 334° |
| 2026-04-28 20:07 | 52.58334 | -1.18845 | 18306 ft | 412 kts | 334° |
| 2026-04-28 20:07 | 52.60777 | -1.21308 | 18307 ft | 412 kts | 334° |
| 2026-04-28 20:08 | 52.63221 | -1.23779 | 18303 ft | 412 kts | 334° |
| 2026-04-28 20:08 | 52.65661 | -1.26253 | 18301 ft | 412 kts | 334° |
| 2026-04-28 20:08 | 52.68102 | -1.28732 | 18307 ft | 412 kts | 334° |
| 2026-04-28 20:08 | 52.70538 | -1.31208 | 18298 ft | 412 kts | 334° |
| 2026-04-28 20:09 | 52.72974 | -1.33690 | 18300 ft | 411 kts | 334° |
| 2026-04-28 20:09 | 52.75407 | -1.36172 | 18411 ft | 411 kts | 334° |
| 2026-04-28 20:09 | 52.77843 | -1.38655 | 18392 ft | 411 kts | 334° |
| 2026-04-28 20:09 | 52.80276 | -1.41135 | 18393 ft | 411 kts | 334° |
| 2026-04-28 20:10 | 52.82706 | -1.43616 | 18412 ft | 411 kts | 334° |
| 2026-04-28 20:10 | 52.85134 | -1.46101 | 18413 ft | 410 kts | 334° |
| 2026-04-28 20:10 | 52.87560 | -1.48590 | 18421 ft | 410 kts | 334° |
| 2026-04-28 20:10 | 52.89985 | -1.51080 | 18418 ft | 410 kts | 334° |
| 2026-04-28 20:11 | 52.92411 | -1.53574 | 18421 ft | 410 kts | 334° |
| 2026-04-28 20:11 | 52.94832 | -1.56070 | 18420 ft | 410 kts | 334° |
| 2026-04-28 20:11 | 52.97254 | -1.58567 | 18419 ft | 409 kts | 334° |
| 2026-04-28 20:11 | 52.99673 | -1.61063 | 18416 ft | 409 kts | 334° |
| 2026-04-28 20:12 | 53.02088 | -1.63557 | 18393 ft | 409 kts | 334° |
| 2026-04-28 20:12 | 53.04514 | -1.66038 | 18393 ft | 408 kts | 336° |
| 2026-04-28 20:12 | 53.07063 | -1.68013 | 18403 ft | 401 kts | 345° |
| 2026-04-28 20:12 | 53.08783 | -1.69066 | 18405 ft | 401 kts | 346° |
| 2026-04-28 20:13 | 53.12286 | -1.71226 | 18410 ft | 400 kts | 345° |
| 2026-04-28 20:13 | 53.14854 | -1.72827 | 18036 ft | 393 kts | 345° |
| 2026-04-28 20:13 | 53.17425 | -1.74430 | 17306 ft | 394 kts | 345° |
| 2026-04-28 20:13 | 53.19963 | -1.76021 | 16812 ft | 381 kts | 345° |
| 2026-04-28 20:14 | 53.22374 | -1.77542 | 16364 ft | 364 kts | 345° |
| 2026-04-28 20:14 | 53.24704 | -1.79002 | 15896 ft | 361 kts | 345° |
| 2026-04-28 20:14 | 53.27054 | -1.80462 | 15449 ft | 358 kts | 345° |
| 2026-04-28 20:14 | 53.29382 | -1.81902 | 15000 ft | 355 kts | 344° |
| 2026-04-28 20:15 | 53.31688 | -1.83334 | 14542 ft | 353 kts | 344° |
| 2026-04-28 20:15 | 53.33983 | -1.84767 | 14081 ft | 350 kts | 343° |
| 2026-04-28 20:15 | 53.36259 | -1.86195 | 13602 ft | 348 kts | 343° |
| 2026-04-28 20:15 | 53.38516 | -1.87614 | 13145 ft | 345 kts | 343° |
| 2026-04-28 20:16 | 53.40752 | -1.89021 | 12688 ft | 342 kts | 343° |
| 2026-04-28 20:16 | 53.42977 | -1.90423 | 12217 ft | 340 kts | 343° |
| 2026-04-28 20:16 | 53.45184 | -1.91817 | 11766 ft | 338 kts | 343° |
| 2026-04-28 20:16 | 53.47378 | -1.93202 | 11311 ft | 336 kts | 343° |
| 2026-04-28 20:17 | 53.49584 | -1.94377 | 10967 ft | 325 kts | 354° |
| 2026-04-28 20:17 | 53.51722 | -1.94563 | 10719 ft | 294 kts | 10° |
| 2026-04-28 20:17 | 53.53639 | -1.93769 | 10094 ft | 278 kts | 28° |
| 2026-04-28 20:17 | 53.55241 | -1.92082 | 9341 ft | 267 kts | 45° |
| 2026-04-28 20:18 | 53.56448 | -1.89758 | 8864 ft | 264 kts | 56° |
| 2026-04-28 20:18 | 53.57174 | -1.88114 | 8566 ft | 265 kts | 55° |
| 2026-04-28 20:18 | 53.58654 | -1.84809 | 8073 ft | 262 kts | 55° |
| 2026-04-28 20:18 | 53.59757 | -1.82363 | 7643 ft | 262 kts | 55° |
| 2026-04-28 20:19 | 53.60857 | -1.79917 | 7205 ft | 263 kts | 55° |
| 2026-04-28 20:19 | 53.61946 | -1.77492 | 6889 ft | 256 kts | 56° |
| 2026-04-28 20:19 | 53.62656 | -1.75905 | 6482 ft | 255 kts | 55° |
| 2026-04-28 20:19 | 53.63714 | -1.73538 | 5849 ft | 256 kts | 55° |
| 2026-04-28 20:20 | 53.64774 | -1.71164 | 5379 ft | 250 kts | 55° |
| 2026-04-28 20:20 | 53.66141 | -1.68104 | 4527 ft | 243 kts | 56° |
| 2026-04-28 20:20 | 53.67158 | -1.65819 | 4117 ft | 244 kts | 56° |
| 2026-04-28 20:20 | 53.67846 | -1.64270 | 3838 ft | 243 kts | 56° |
| 2026-04-28 20:21 | 53.68857 | -1.61990 | 3502 ft | 239 kts | 56° |
| 2026-04-28 20:21 | 53.69810 | -1.59841 | 3445 ft | 224 kts | 56° |
| 2026-04-28 20:21 | 53.70718 | -1.57794 | 3387 ft | 212 kts | 56° |
| 2026-04-28 20:21 | 53.71572 | -1.55866 | 3326 ft | 197 kts | 55° |
| 2026-04-28 20:22 | 53.72381 | -1.54043 | 3229 ft | 188 kts | 55° |
| 2026-04-28 20:22 | 53.73249 | -1.52462 | 3146 ft | 188 kts | 41° |
| 2026-04-28 20:22 | 53.74437 | -1.51422 | 3043 ft | 194 kts | 21° |
| 2026-04-28 20:22 | 53.75776 | -1.51179 | 3015 ft | 191 kts | 1° |
| 2026-04-28 20:23 | 53.76995 | -1.51732 | 2997 ft | 179 kts | 341° |
| 2026-04-28 20:23 | 53.78001 | -1.52900 | 2848 ft | 174 kts | 323° |
| 2026-04-28 20:23 | 53.78888 | -1.54258 | 2643 ft | 170 kts | 324° |
| 2026-04-28 20:23 | 53.79757 | -1.55585 | 2437 ft | 166 kts | 324° |
| 2026-04-28 20:24 | 53.80617 | -1.56899 | 2211 ft | 166 kts | 323° |
| 2026-04-28 20:24 | 53.81445 | -1.58170 | 1972 ft | 156 kts | 324° |
| 2026-04-28 20:24 | 53.82238 | -1.59384 | 1754 ft | 152 kts | 324° |
| 2026-04-28 20:24 | 53.83013 | -1.60569 | 1537 ft | 148 kts | 324° |
| 2026-04-28 20:25 | 53.83769 | -1.61728 | 1323 ft | 145 kts | 323° |
| 2026-04-28 20:25 | 53.84511 | -1.62866 | 1114 ft | 142 kts | 322° |
| 2026-04-28 20:25 | 53.85244 | -1.63974 | 940 ft | 140 kts | 319° |
| 2026-04-28 20:25 | 53.85965 | -1.65083 | 745 ft | 139 kts | 321° |
| 2026-04-28 20:26 | 53.86644 | -1.66146 | 666 ft | 107 kts | 320° |
| 2026-04-28 20:26 | 53.86971 | -1.66637 | 673 ft | 21 kts | 317° |
| 2026-04-28 20:26 | 53.87035 | -1.66741 | 678 ft | 25 kts | 316° |